Time;durP1;ratioP1;P1;durP2;ratioP2;P2;SDS_P1;SDS_P2;PMS_P1;PMS_P2;Temp;Humidity;BMP_temperature;BMP_pressure;BME280_temperature;BME280_humidity;BME280_pressure;Samples;Min_cycle;Max_cycle;Signal;HPM_P1;HPM_P2
2022/07/02 00:01:59;;;;;;;3.33;2.65;;;14.20;99.90;;;;;;5031452;28;20037;-47
2022/07/02 00:04:28;;;;;;;3.17;2.53;;;14.20;99.90;;;;;;5035221;28;20080;-47
2022/07/02 00:06:53;;;;;;;4.55;2.60;;;14.20;99.90;;;;;;5035314;28;20041;-51
2022/07/02 00:09:19;;;;;;;3.53;2.63;;;14.10;99.90;;;;;;5035064;28;20099;-48
2022/07/02 00:11:47;;;;;;;3.42;2.13;;;14.10;99.90;;;;;;5035120;28;20042;-51
2022/07/02 00:14:14;;;;;;;5.00;2.60;;;14.00;99.90;;;;;;5035008;28;20052;-49
2022/07/02 00:16:46;;;;;;;5.82;2.50;;;14.10;99.90;;;;;;5035140;28;20117;-49
2022/07/02 00:19:15;;;;;;;4.88;2.70;;;14.10;99.90;;;;;;5035037;28;20038;-49
2022/07/02 00:21:41;;;;;;;5.75;2.50;;;14.00;99.90;;;;;;5035053;28;20087;-48
2022/07/02 00:24:07;;;;;;;7.70;2.78;;;14.00;99.90;;;;;;5034911;28;20038;-52
2022/07/02 00:26:40;;;;;;;5.05;3.08;;;14.20;99.90;;;;;;5034889;28;20045;-47
2022/07/02 00:29:34;;;;;;;7.70;3.08;;;14.00;99.90;;;;;;5034746;28;20053;-47
2022/07/02 00:32:01;;;;;;;4.25;2.70;;;14.00;99.90;;;;;;5034914;28;20047;-49
2022/07/02 00:34:28;;;;;;;5.78;3.10;;;13.90;99.90;;;;;;5034707;28;20449;-47
2022/07/02 00:36:55;;;;;;;5.20;2.92;;;13.90;99.90;;;;;;5034610;28;20095;-47
2022/07/02 00:39:21;;;;;;;5.40;2.97;;;13.90;99.90;;;;;;5035069;28;20468;-49
2022/07/02 00:41:48;;;;;;;6.50;3.33;;;13.80;99.90;;;;;;5034670;28;20095;-53
2022/07/02 00:44:14;;;;;;;3.90;3.40;;;13.80;99.90;;;;;;5034557;28;20057;-48
2022/07/02 00:46:41;;;;;;;7.43;3.90;;;13.80;99.90;;;;;;5034557;28;20049;-49
2022/07/02 00:49:08;;;;;;;5.25;3.80;;;13.70;99.90;;;;;;5034433;28;20044;-51
2022/07/02 00:51:34;;;;;;;4.60;3.25;;;13.80;99.90;;;;;;5034122;28;20068;-49
2022/07/02 00:53:59;;;;;;;5.00;3.60;;;13.80;99.90;;;;;;5034173;28;20045;-51
2022/07/02 00:56:26;;;;;;;7.65;3.38;;;13.80;99.90;;;;;;5034555;28;20069;-49
2022/07/02 00:58:52;;;;;;;6.47;3.50;;;13.70;99.90;;;;;;5034310;28;20049;-49
2022/07/02 01:01:17;;;;;;;6.03;3.97;;;13.70;99.90;;;;;;5034272;28;20514;-51
2022/07/02 01:03:45;;;;;;;6.00;3.53;;;13.80;99.90;;;;;;5034026;28;20519;-47
2022/07/02 01:06:13;;;;;;;;;;;13.80;99.90;;;;;;5034605;28;20048;-47
2022/07/02 01:11:25;;;;;;;6.93;3.40;;;13.90;99.90;;;;;;5034177;28;20052;-47
2022/07/02 01:13:54;;;;;;;6.43;3.50;;;13.80;99.90;;;;;;5033913;28;20091;-47
2022/07/02 01:16:19;;;;;;;4.38;3.60;;;13.70;99.90;;;;;;5033942;28;20077;-50
2022/07/02 01:18:45;;;;;;;5.55;3.33;;;13.70;99.90;;;;;;5033874;28;20073;-49
2022/07/02 01:21:11;;;;;;;5.82;3.60;;;13.70;99.90;;;;;;5034131;28;20092;-53
2022/07/02 01:23:36;;;;;;;6.90;3.80;;;13.70;99.90;;;;;;5033858;28;20466;-46
2022/07/02 01:26:02;;;;;;;6.88;3.53;;;13.70;99.90;;;;;;5033696;28;20103;-50
2022/07/02 01:28:28;;;;;;;5.60;3.20;;;13.70;99.90;;;;;;5033922;28;20076;-49
2022/07/02 01:30:53;;;;;;;3.67;3.38;;;13.70;99.90;;;;;;5033580;28;20044;-47
2022/07/02 01:33:19;;;;;;;5.32;3.55;;;13.80;99.90;;;;;;5033664;28;20068;-49
2022/07/02 01:35:45;;;;;;;4.82;3.53;;;13.80;99.90;;;;;;5033392;28;20045;-48
2022/07/02 01:38:10;;;;;;;5.43;3.58;;;14.00;99.90;;;;;;5033626;28;20045;-50
2022/07/02 01:40:36;;;;;;;6.47;3.65;;;13.90;99.90;;;;;;5033714;28;20060;-46
2022/07/02 01:43:02;;;;;;;6.97;4.10;;;13.80;99.90;;;;;;5033530;28;20041;-49
2022/07/02 01:45:28;;;;;;;7.43;4.65;;;13.80;99.90;;;;;;5033406;28;20045;-49
2022/07/02 01:47:53;;;;;;;8.45;3.88;;;13.60;99.90;;;;;;5033251;28;20037;-49
2022/07/02 01:50:19;;;;;;;4.68;3.60;;;13.60;99.90;;;;;;5032881;28;20041;-52
2022/07/02 01:52:44;;;;;;;5.82;3.60;;;13.50;99.90;;;;;;5033253;28;20392;-49
2022/07/02 01:55:10;;;;;;;5.38;3.63;;;13.60;99.90;;;;;;5033368;28;20080;-50
2022/07/02 01:57:36;;;;;;;10.13;4.05;;;13.40;99.90;;;;;;5033253;28;20492;-51
2022/07/02 02:00:07;;;;;;;6.80;4.20;;;13.40;99.90;;;;;;5033163;28;20510;-51
2022/07/02 02:02:33;;;;;;;7.80;4.25;;;13.30;99.90;;;;;;5033013;28;20562;-49
2022/07/02 02:04:58;;;;;;;4.57;4.00;;;13.30;99.90;;;;;;5033135;28;20085;-47
2022/07/02 02:07:24;;;;;;;5.72;4.13;;;13.20;99.90;;;;;;5033143;28;20073;-48
2022/07/02 02:09:50;;;;;;;8.93;4.45;;;13.20;99.90;;;;;;5033115;28;20136;-51
2022/07/02 02:12:15;;;;;;;6.72;4.20;;;13.20;99.90;;;;;;5032863;28;20500;-49
2022/07/02 02:14:41;;;;;;;5.85;4.28;;;13.20;99.90;;;;;;5032894;28;20041;-49
2022/07/02 02:17:07;;;;;;;4.32;3.80;;;13.10;99.90;;;;;;5033008;28;20037;-50
2022/07/02 02:19:33;;;;;;;7.63;4.75;;;13.00;99.90;;;;;;5032582;28;20136;-49
2022/07/02 02:21:58;;;;;;;5.32;4.60;;;13.00;99.90;;;;;;5032695;28;20049;-51
2022/07/02 02:24:24;;;;;;;5.78;4.85;;;13.00;99.90;;;;;;5032780;28;20037;-47
2022/07/02 02:26:50;;;;;;;8.32;4.95;;;13.00;99.90;;;;;;5032346;28;20606;-48
2022/07/02 02:29:15;;;;;;;6.05;5.07;;;12.90;99.90;;;;;;5032592;28;20037;-48
2022/07/02 02:31:41;;;;;;;5.55;4.75;;;12.90;99.90;;;;;;5032542;28;20187;-48
2022/07/02 02:34:07;;;;;;;7.05;4.93;;;12.90;99.90;;;;;;5032855;28;20129;-49
2022/07/02 02:36:32;;;;;;;6.13;4.90;;;12.90;99.90;;;;;;5032880;28;20049;-52
2022/07/02 02:38:58;;;;;;;7.78;5.50;;;12.80;99.90;;;;;;5032613;28;20084;-50
2022/07/02 02:41:23;;;;;;;5.85;5.25;;;12.80;99.90;;;;;;5032464;28;20056;-47
2022/07/02 02:43:49;;;;;;;7.10;5.38;;;12.80;99.90;;;;;;5032446;28;20057;-49
2022/07/02 02:46:15;;;;;;;6.18;5.05;;;12.80;99.90;;;;;;5032290;28;20041;-51
2022/07/02 02:48:40;;;;;;;8.77;5.50;;;12.70;99.90;;;;;;5032549;28;20045;-50
2022/07/02 02:51:07;;;;;;;6.35;5.20;;;12.70;99.90;;;;;;5032132;28;20139;-49
2022/07/02 02:53:33;;;;;;;6.50;5.87;;;12.60;99.90;;;;;;5032452;28;20049;-49
2022/07/02 02:56:00;;;;;;;9.20;5.90;;;12.60;99.90;;;;;;5032284;28;20404;-48
2022/07/02 02:58:26;;;;;;;6.47;5.82;;;12.60;99.90;;;;;;5032330;28;20052;-50
2022/07/02 03:00:52;;;;;;;9.38;5.65;;;12.60;99.90;;;;;;5032045;28;20487;-48
2022/07/02 03:03:18;;;;;;;6.72;5.85;;;12.60;99.90;;;;;;5032228;28;20095;-51
2022/07/02 03:05:43;;;;;;;6.35;5.63;;;12.70;99.90;;;;;;5032182;28;20488;-49
2022/07/02 03:08:09;;;;;;;9.15;5.80;;;12.70;99.90;;;;;;5032178;28;20044;-47
2022/07/02 03:10:34;;;;;;;6.10;5.50;;;12.70;99.90;;;;;;5032408;28;20407;-49
2022/07/02 03:13:00;;;;;;;9.52;5.75;;;12.70;99.90;;;;;;5032693;28;20123;-50
2022/07/02 03:15:26;;;;;;;8.60;5.32;;;12.70;99.90;;;;;;5031886;28;20435;-52
2022/07/02 03:17:51;;;;;;;7.20;5.50;;;12.80;99.90;;;;;;5032045;28;20045;-48
2022/07/02 03:20:17;;;;;;;6.55;5.80;;;12.70;99.90;;;;;;5032227;28;20114;-48
2022/07/02 03:22:43;;;;;;;8.18;5.38;;;12.70;99.90;;;;;;5032091;28;20463;-48
2022/07/02 03:25:09;;;;;;;8.82;6.15;;;12.70;99.90;;;;;;5032092;28;20059;-49
2022/07/02 03:27:35;;;;;;;6.57;5.28;;;12.70;99.90;;;;;;5031919;28;20104;-48
2022/07/02 03:30:01;;;;;;;8.20;5.68;;;12.70;99.90;;;;;;5031823;28;20044;-49
2022/07/02 03:32:29;;;;;;;6.63;5.72;;;12.70;99.90;;;;;;5032215;28;20132;-47
2022/07/02 03:34:55;;;;;;;7.30;5.85;;;12.70;99.90;;;;;;5032120;28;20053;-48
2022/07/02 03:37:25;;;;;;;7.10;5.75;;;12.70;99.90;;;;;;5032536;28;20052;-48
2022/07/02 03:39:51;;;;;;;8.65;5.60;;;12.70;99.90;;;;;;5035776;28;20045;-48
2022/07/02 03:42:16;;;;;;;7.95;5.75;;;12.70;99.90;;;;;;5035626;28;20091;-47
2022/07/02 03:44:42;;;;;;;8.38;6.03;;;12.80;99.90;;;;;;5035457;28;20042;-52
2022/07/02 03:47:08;;;;;;;7.05;5.80;;;12.80;99.90;;;;;;5035520;28;20045;-53
2022/07/02 03:49:33;;;;;;;7.00;5.50;;;12.80;99.90;;;;;;5035617;28;20049;-49
2022/07/02 03:51:59;;;;;;;9.48;6.13;;;12.90;99.90;;;;;;5035312;28;20133;-49
2022/07/02 03:54:24;;;;;;;10.20;5.53;;;12.90;99.90;;;;;;5035278;28;20048;-48
2022/07/02 03:56:50;;;;;;;10.30;5.50;;;13.00;99.90;;;;;;5035417;28;20095;-49
2022/07/02 03:59:16;;;;;;;7.53;5.72;;;13.00;99.90;;;;;;5035302;28;20050;-49
2022/07/02 04:01:41;;;;;;;9.00;5.82;;;13.10;99.90;;;;;;5035405;28;20045;-48
2022/07/02 04:04:07;;;;;;;6.88;6.18;;;13.10;99.90;;;;;;5035439;28;20041;-49
2022/07/02 04:06:32;;;;;;;6.18;5.45;;;13.10;99.90;;;;;;5035377;28;20044;-49
2022/07/02 04:08:58;;;;;;;5.53;5.03;;;13.20;99.90;;;;;;5035334;28;20564;-49
2022/07/02 04:11:25;;;;;;;7.03;5.53;;;13.20;99.90;;;;;;5035126;28;20037;-49
2022/07/02 04:13:50;;;;;;;7.68;5.80;;;13.20;99.90;;;;;;5035151;28;20087;-48
2022/07/02 04:16:16;;;;;;;8.80;5.43;;;13.30;99.90;;;;;;5035387;28;20117;-49
2022/07/02 04:18:42;;;;;;;6.93;5.65;;;13.40;99.90;;;;;;5035136;28;20041;-48
2022/07/02 04:21:07;;;;;;;9.88;5.80;;;13.40;99.90;;;;;;5035065;28;20051;-50
2022/07/02 04:23:33;;;;;;;5.93;5.20;;;13.40;99.90;;;;;;5035017;28;20045;-47
2022/07/02 04:25:58;;;;;;;8.15;5.38;;;13.50;99.90;;;;;;5034800;28;20056;-48
2022/07/02 04:28:25;;;;;;;8.30;5.30;;;13.60;99.90;;;;;;5034821;28;20366;-47
2022/07/02 04:30:51;;;;;;;5.55;5.05;;;13.60;99.90;;;;;;5035076;28;20049;-47
2022/07/02 04:33:16;;;;;;;6.20;5.38;;;13.70;99.90;;;;;;5034845;28;20052;-47
2022/07/02 04:35:42;;;;;;;9.32;6.07;;;13.80;99.90;;;;;;5034802;28;20072;-49
2022/07/02 04:38:08;;;;;;;9.52;5.40;;;13.90;99.90;;;;;;5034647;28;20434;-47
2022/07/02 04:40:33;;;;;;;9.35;5.90;;;16.00;99.90;;;;;;5034499;28;20041;-47
2022/07/02 04:42:59;;;;;;;5.95;5.40;;;16.70;99.90;;;;;;5034644;28;20041;-49
2022/07/02 04:45:24;;;;;;;8.20;5.32;;;17.90;99.90;;;;;;5034664;28;20361;-48
2022/07/02 04:47:50;;;;;;;8.13;5.03;;;18.60;99.90;;;;;;5034461;28;20041;-48
2022/07/02 04:50:16;;;;;;;5.30;4.65;;;19.00;99.90;;;;;;5034393;28;20038;-49
2022/07/02 04:52:41;;;;;;;6.18;4.70;;;20.00;99.90;;;;;;5034368;28;20053;-48
2022/07/02 04:55:07;;;;;;;6.75;4.38;;;20.70;99.90;;;;;;5034503;28;20044;-48
2022/07/02 04:57:32;;;;;;;7.95;4.47;;;21.10;99.90;;;;;;5034316;28;20080;-50
2022/07/02 04:59:58;;;;;;;7.03;4.65;;;21.70;99.90;;;;;;5034518;28;20143;-50
2022/07/02 05:02:24;;;;;;;4.50;3.78;;;22.20;99.90;;;;;;5034302;28;20475;-47
2022/07/02 05:04:49;;;;;;;6.28;4.20;;;22.80;99.90;;;;;;5034308;28;20081;-49
2022/07/02 05:07:15;;;;;;;4.50;3.90;;;22.90;99.90;;;;;;5034204;28;20083;-48
2022/07/02 05:09:40;;;;;;;4.45;3.60;;;23.50;99.90;;;;;;5034053;28;20056;-48
2022/07/02 05:12:06;;;;;;;6.85;4.10;;;23.70;99.90;;;;;;5034307;28;20041;-49
2022/07/02 05:14:32;;;;;;;6.82;4.25;;;24.20;99.90;;;;;;5033938;28;20451;-48
2022/07/02 05:16:57;;;;;;;4.90;3.50;;;24.30;99.90;;;;;;5034058;28;20041;-50
2022/07/02 05:19:23;;;;;;;4.88;3.97;;;24.70;99.90;;;;;;5034088;28;20041;-48
2022/07/02 05:21:49;;;;;;;4.20;3.80;;;25.10;99.90;;;;;;5033942;28;20069;-48
2022/07/02 05:24:14;;;;;;;4.75;3.28;;;25.50;99.90;;;;;;5033959;28;20077;-49
2022/07/02 05:26:40;;;;;;;8.40;3.83;;;26.10;97.70;;;;;;5033902;28;20388;-50
2022/07/02 05:29:06;;;;;;;6.10;3.30;;;;;;;;;;5033904;28;20060;-47
2022/07/02 05:31:31;;;;;;;3.63;3.20;;;26.30;99.90;;;;;;5033809;28;20496;-50
2022/07/02 05:33:57;;;;;;;4.80;3.20;;;26.20;96.00;;;;;;5033588;28;20045;-49
2022/07/02 05:36:22;;;;;;;3.38;2.90;;;26.40;95.60;;;;;;5033630;28;20124;-48
2022/07/02 05:38:48;;;;;;;5.38;3.35;;;26.80;95.50;;;;;;5033675;28;20049;-49
2022/07/02 05:41:14;;;;;;;4.85;3.13;;;26.50;93.30;;;;;;5033623;28;20075;-48
2022/07/02 05:43:39;;;;;;;4.55;2.85;;;26.80;93.90;;;;;;5033263;28;20399;-48
2022/07/02 05:46:05;;;;;;;5.05;2.92;;;26.80;92.70;;;;;;5033564;28;20084;-51
2022/07/02 05:48:31;;;;;;;5.05;2.80;;;26.90;91.20;;;;;;5033620;28;20060;-48
2022/07/02 05:50:56;;;;;;;6.47;3.00;;;27.00;91.80;;;;;;5033315;28;20445;-48
2022/07/02 05:53:22;;;;;;;4.00;3.03;;;27.20;91.00;;;;;;5033482;28;20045;-48
2022/07/02 05:55:48;;;;;;;6.25;3.17;;;27.40;91.30;;;;;;5033433;28;20141;-50
2022/07/02 05:58:13;;;;;;;4.20;3.13;;;27.70;91.70;;;;;;5033227;28;20038;-48
2022/07/02 06:00:39;;;;;;;4.30;2.60;;;27.70;86.80;;;;;;5032727;28;20044;-48
2022/07/02 06:03:05;;;;;;;3.10;2.80;;;27.70;88.40;;;;;;5033282;28;20041;-48
2022/07/02 06:08:15;;;;;;;5.95;3.05;;;28.20;83.60;;;;;;5033180;28;20083;-49
2022/07/02 06:10:41;;;;;;;3.35;2.90;;;28.30;85.80;;;;;;5033080;28;20041;-48
2022/07/02 06:13:06;;;;;;;4.38;2.70;;;28.50;85.60;;;;;;5033285;28;20053;-49
2022/07/02 06:15:32;;;;;;;3.67;2.63;;;28.60;84.90;;;;;;5033122;28;20155;-49
2022/07/02 06:18:01;;;;;;;4.57;3.03;;;28.70;82.60;;;;;;5033165;28;20049;-49
2022/07/02 06:20:27;;;;;;;4.72;2.72;;;28.50;82.90;;;;;;5033038;28;20116;-49
2022/07/02 06:22:53;;;;;;;5.10;2.60;;;28.70;82.60;;;;;;5032969;28;20369;-49
2022/07/02 06:25:19;;;;;;;6.70;2.90;;;28.80;82.70;;;;;;5032813;28;20041;-48
2022/07/02 06:27:45;;;;;;;4.43;2.65;;;28.70;80.10;;;;;;5032775;28;20471;-49
2022/07/02 06:30:11;;;;;;;4.93;3.20;;;28.80;80.20;;;;;;5033061;28;20042;-48
2022/07/02 06:32:36;;;;;;;5.15;2.75;;;27.40;77.00;;;;;;5033265;28;20100;-48
2022/07/02 06:35:03;;;;;;;5.30;2.50;;;27.10;81.60;;;;;;5032836;28;20045;-53
2022/07/02 06:37:28;;;;;;;4.70;2.40;;;26.80;81.30;;;;;;5032783;28;20041;-51
2022/07/02 06:39:54;;;;;;;4.63;2.50;;;27.00;79.90;;;;;;5032551;28;20111;-51
2022/07/02 06:42:20;;;;;;;3.95;2.30;;;27.60;81.50;;;;;;5032822;28;20045;-50
2022/07/02 06:44:51;;;;;;;4.50;2.63;;;27.70;78.70;;;;;;5032762;28;20096;-52
2022/07/02 06:47:17;;;;;;;3.47;2.42;;;27.80;79.60;;;;;;5032679;28;20491;-50
2022/07/02 06:49:44;;;;;;;2.67;2.00;;;27.80;78.00;;;;;;5032670;28;20121;-52
2022/07/02 06:52:11;;;;;;;5.07;2.45;;;27.90;77.30;;;;;;5032181;28;20280;-51
2022/07/02 06:54:37;;;;;;;3.85;2.13;;;27.30;76.40;;;;;;5032745;28;20045;-51
2022/07/02 06:57:03;;;;;;;5.53;2.30;;;27.20;77.10;;;;;;5032481;28;20041;-52
2022/07/02 06:59:29;;;;;;;3.97;2.03;;;27.30;79.30;;;;;;5032769;28;20041;-49
2022/07/02 07:01:55;;;;;;;3.35;2.00;;;27.60;75.70;;;;;;5032559;28;20037;-52
2022/07/02 07:04:20;;;;;;;3.72;2.00;;;27.70;76.20;;;;;;5032388;28;20049;-51
2022/07/02 07:06:55;;;;;;;5.18;1.92;;;27.60;75.70;;;;;;5031145;28;20077;-53
2022/07/02 07:09:22;;;;;;;2.75;1.55;;;27.40;76.60;;;;;;5032523;28;20045;-49
2022/07/02 07:11:48;;;;;;;2.03;1.70;;;27.20;73.60;;;;;;5033919;28;20046;-50
2022/07/02 07:14:13;;;;;;;4.05;1.75;;;26.90;74.40;;;;;;5036481;28;20042;-49
2022/07/02 07:16:39;;;;;;;3.83;1.85;;;26.70;75.00;;;;;;5036372;28;20446;-51
2022/07/02 07:19:05;;;;;;;2.33;1.33;;;26.80;75.10;;;;;;5036772;28;20045;-48
2022/07/02 07:21:35;;;;;;;4.80;1.67;;;26.30;75.20;;;;;;5036110;28;20041;-49
2022/07/02 07:24:01;;;;;;;4.72;1.70;;;26.60;76.70;;;;;;5036534;28;20049;-48
2022/07/02 07:26:27;;;;;;;4.23;1.47;;;27.00;76.70;;;;;;5036306;28;20042;-51
2022/07/02 07:28:53;;;;;;;3.65;1.50;;;27.30;76.40;;;;;;5036098;28;20053;-49
2022/07/02 07:31:21;;;;;;;2.28;1.20;;;27.40;75.50;;;;;;5036111;28;20073;-50
2022/07/02 07:33:48;;;;;;;2.40;1.10;;;27.50;74.50;;;;;;5035978;28;20081;-52
2022/07/02 07:36:13;;;;;;;3.22;1.30;;;27.60;73.30;;;;;;5036089;28;20096;-48
2022/07/02 07:38:39;;;;;;;3.42;1.48;;;27.60;74.60;;;;;;5036041;28;20045;-50
2022/07/02 07:41:05;;;;;;;5.43;1.50;;;27.80;75.10;;;;;;5035811;28;20132;-53
2022/07/02 07:43:31;;;;;;;5.03;1.50;;;27.70;74.50;;;;;;5035639;28;20128;-48
2022/07/02 07:45:57;;;;;;;2.90;1.30;;;26.80;75.00;;;;;;5035731;28;20454;-49
2022/07/02 07:48:23;;;;;;;4.10;1.52;;;26.80;73.90;;;;;;5035585;28;20041;-49
2022/07/02 07:50:49;;;;;;;4.45;1.45;;;26.50;74.90;;;;;;5035487;28;20137;-49
2022/07/02 07:53:15;;;;;;;4.25;1.38;;;25.90;75.10;;;;;;5035850;28;20045;-51
2022/07/02 07:55:40;;;;;;;3.72;1.10;;;25.30;74.30;;;;;;5035603;28;20148;-51
2022/07/02 07:58:06;;;;;;;2.45;1.20;;;24.80;76.10;;;;;;5035527;28;20107;-49
2022/07/02 08:00:32;;;;;;;2.88;1.15;;;24.60;75.70;;;;;;5035385;28;20120;-50
2022/07/02 08:02:58;;;;;;;3.90;1.25;;;24.00;76.80;;;;;;5035306;28;20081;-49
2022/07/02 08:05:24;;;;;;;2.22;1.10;;;23.90;78.10;;;;;;5035544;28;20045;-49
2022/07/02 08:07:50;;;;;;;1.95;0.90;;;23.90;79.80;;;;;;5035456;28;20038;-48
2022/07/02 08:10:16;;;;;;;5.10;1.30;;;23.60;78.00;;;;;;5035349;28;20049;-50
2022/07/02 08:12:42;;;;;;;4.65;1.10;;;23.60;79.10;;;;;;5034074;28;20042;-49
2022/07/02 08:15:08;;;;;;;3.42;1.20;;;23.60;81.20;;;;;;5035303;28;20067;-49
2022/07/02 08:17:35;;;;;;;3.13;0.93;;;23.50;80.80;;;;;;5035093;28;20039;-48
2022/07/02 08:20:03;;;;;;;1.83;0.90;;;23.50;80.40;;;;;;5035271;28;20053;-50
2022/07/02 08:22:29;;;;;;;3.83;0.82;;;23.40;80.60;;;;;;5035073;28;20046;-49
2022/07/02 08:24:54;;;;;;;2.33;0.80;;;23.40;79.80;;;;;;5034249;28;20052;-49
2022/07/02 08:27:20;;;;;;;3.38;0.90;;;23.50;81.50;;;;;;5035056;28;20038;-51
2022/07/02 08:29:46;;;;;;;2.08;0.85;;;23.40;80.90;;;;;;5034808;28;20037;-47
2022/07/02 08:32:11;;;;;;;3.80;1.00;;;23.40;82.50;;;;;;5034909;28;20457;-49
2022/07/02 08:34:37;;;;;;;2.45;1.00;;;23.50;81.80;;;;;;5034675;28;20495;-48
2022/07/02 08:37:03;;;;;;;2.00;1.15;;;23.40;80.90;;;;;;5034975;28;20099;-48
2022/07/02 08:39:28;;;;;;;2.83;1.08;;;23.50;80.90;;;;;;5034958;28;20048;-49
2022/07/02 08:41:54;;;;;;;2.15;1.00;;;23.60;81.40;;;;;;5034790;28;20122;-49
2022/07/02 08:44:23;;;;;;;1.88;1.10;;;23.60;82.30;;;;;;5034575;28;20037;-48
2022/07/02 08:46:50;;;;;;;1.48;0.70;;;23.50;82.60;;;;;;5034538;28;20037;-49
2022/07/02 08:49:20;;;;;;;1.70;0.80;;;23.50;81.40;;;;;;5034790;28;20041;-49
2022/07/02 08:52:06;;;;;;;3.28;1.00;;;23.50;80.70;;;;;;5034343;28;20049;-51
2022/07/02 08:54:32;;;;;;;3.53;0.73;;;23.70;81.20;;;;;;5034581;28;20123;-50
2022/07/02 08:57:01;;;;;;;2.15;0.80;;;23.60;78.80;;;;;;5034445;28;20077;-49
2022/07/02 08:59:31;;;;;;;1.65;0.80;;;23.60;77.90;;;;;;5034462;28;20041;-53
2022/07/02 09:01:58;;;;;;;1.67;0.70;;;23.50;80.40;;;;;;5034524;28;20112;-49
2022/07/02 09:04:25;;;;;;;1.90;0.70;;;23.50;80.00;;;;;;5034426;28;20041;-52
2022/07/02 09:06:57;;;;;;;1.45;0.90;;;23.70;80.00;;;;;;5034231;28;20407;-49
2022/07/02 09:09:26;;;;;;;3.25;0.80;;;23.70;80.50;;;;;;5034129;28;20492;-50
2022/07/02 09:11:52;;;;;;;2.42;0.70;;;23.70;78.50;;;;;;5034019;28;20045;-53
2022/07/02 09:14:18;;;;;;;2.38;0.80;;;23.70;78.00;;;;;;5034238;28;20088;-49
2022/07/02 09:16:45;;;;;;;3.75;0.85;;;23.70;79.80;;;;;;5034355;28;20046;-50
2022/07/02 09:19:11;;;;;;;2.80;0.90;;;23.80;80.10;;;;;;5034155;28;20080;-52
2022/07/02 09:21:46;;;;;;;3.50;1.10;;;23.80;81.60;;;;;;5034198;28;20065;-50
2022/07/02 09:24:12;;;;;;;2.13;0.90;;;23.80;79.70;;;;;;5034161;28;20037;-48
2022/07/02 09:26:37;;;;;;;2.25;0.77;;;24.00;78.10;;;;;;5034233;28;20041;-51
2022/07/02 09:29:04;;;;;;;2.10;0.90;;;24.10;82.10;;;;;;5034032;28;20037;-51
2022/07/02 09:31:47;;;;;;;2.00;0.90;;;24.00;80.40;;;;;;5033877;28;20513;-48
2022/07/02 09:34:27;;;;;;;4.55;0.90;;;24.00;81.20;;;;;;5033634;28;20547;-49
2022/07/02 09:36:52;;;;;;;2.75;1.00;;;24.30;81.40;;;;;;5033004;28;20041;-50
2022/07/02 09:39:29;;;;;;;2.67;0.95;;;24.30;81.00;;;;;;5033810;28;20059;-53
2022/07/02 09:41:55;;;;;;;4.72;1.27;;;24.50;81.80;;;;;;5033836;28;20081;-51
2022/07/02 09:44:21;;;;;;;2.63;1.20;;;24.70;85.40;;;;;;5033621;28;20076;-49
2022/07/02 09:46:46;;;;;;;2.53;0.82;;;24.70;81.20;;;;;;5033730;28;20084;-51
2022/07/02 09:49:14;;;;;;;1.73;1.00;;;24.90;80.60;;;;;;5033333;28;20045;-48
2022/07/02 09:51:51;;;;;;;2.90;1.10;;;24.80;78.40;;;;;;5033130;28;20057;-52
2022/07/02 09:54:21;;;;;;;3.85;1.13;;;24.70;80.10;;;;;;5033640;28;20088;-52
2022/07/02 09:56:57;;;;;;;3.92;0.90;;;24.60;80.30;;;;;;5033428;28;20049;-53
2022/07/02 09:59:24;;;;;;;1.77;0.85;;;24.80;81.00;;;;;;5033480;28;20502;-52
2022/07/02 10:01:50;;;;;;;6.03;1.20;;;25.00;76.70;;;;;;5033178;28;20403;-50
2022/07/02 10:04:26;;;;;;;3.85;1.25;;;25.00;76.10;;;;;;5033369;28;20041;-50
2022/07/02 10:06:52;;;;;;;3.13;1.20;;;25.00;75.00;;;;;;5033370;28;20081;-49
2022/07/02 10:09:19;;;;;;;1.65;1.00;;;25.10;77.80;;;;;;5033349;28;20102;-53
2022/07/02 10:11:45;;;;;;;3.20;0.98;;;25.20;76.70;;;;;;5033433;28;20042;-48
2022/07/02 10:14:14;;;;;;;3.45;1.00;;;25.10;78.00;;;;;;5033036;28;20115;-49
2022/07/02 10:16:40;;;;;;;6.60;1.10;;;25.60;78.00;;;;;;5033208;28;20042;-52
2022/07/02 10:19:07;;;;;;;2.08;1.00;;;25.60;80.10;;;;;;5033088;28;20057;-51
2022/07/02 10:21:33;;;;;;;4.35;1.27;;;25.90;78.10;;;;;;5033158;28;20049;-49
2022/07/02 10:24:01;;;;;;;2.40;1.00;;;26.00;80.20;;;;;;5033239;28;20042;-48
2022/07/02 10:26:27;;;;;;;2.15;1.00;;;26.30;78.20;;;;;;5033194;28;20037;-48
2022/07/02 10:28:54;;;;;;;3.43;1.70;;;26.40;78.30;;;;;;5033396;28;20038;-48
2022/07/02 10:31:19;;;;;;;3.17;1.10;;;26.50;78.00;;;;;;5033202;28;20276;-53
2022/07/02 10:34:02;;;;;;;3.17;1.30;;;26.30;77.70;;;;;;5033159;28;20044;-48
2022/07/02 10:36:28;;;;;;;3.88;1.20;;;26.00;77.00;;;;;;5033073;28;20092;-49
2022/07/02 10:38:59;;;;;;;3.45;1.10;;;26.20;77.70;;;;;;5033057;28;20037;-50
2022/07/02 10:41:29;;;;;;;3.25;1.20;;;26.20;78.70;;;;;;5032847;28;20045;-49
2022/07/02 10:43:56;;;;;;;1.48;0.80;;;26.00;77.70;;;;;;5033098;28;20067;-48
2022/07/02 10:46:26;;;;;;;2.28;1.02;;;26.40;78.40;;;;;;5032727;28;20080;-49
2022/07/02 10:48:54;;;;;;;2.03;1.17;;;26.60;79.40;;;;;;5032997;28;20458;-53
2022/07/02 10:51:23;;;;;;;1.52;1.05;;;27.00;77.50;;;;;;5031502;28;20132;-53
2022/07/02 10:53:50;;;;;;;3.63;1.13;;;27.00;76.00;;;;;;5032783;28;20518;-48
2022/07/02 10:56:16;;;;;;;3.00;1.20;;;26.90;76.10;;;;;;5033059;28;20434;-49
2022/07/02 10:58:41;;;;;;;2.80;1.20;;;26.30;75.80;;;;;;5032869;28;20185;-50
2022/07/02 11:01:21;;;;;;;3.97;1.10;;;26.00;76.50;;;;;;5032831;28;20092;-53
2022/07/02 11:04:03;;;;;;;3.22;0.90;;;25.90;75.70;;;;;;5032602;28;20400;-49
2022/07/02 11:06:33;;;;;;;2.25;0.93;;;26.00;80.00;;;;;;5032677;28;20057;-52
2022/07/02 11:08:59;;;;;;;5.13;1.02;;;26.30;79.20;;;;;;5032817;28;20072;-51
2022/07/02 11:11:38;;;;;;;3.25;1.27;;;26.60;78.40;;;;;;5032886;28;20045;-50
2022/07/02 11:14:15;;;;;;;3.92;1.13;;;26.60;77.90;;;;;;5032528;28;20038;-48
2022/07/02 11:16:49;;;;;;;3.08;1.00;;;26.80;78.50;;;;;;5032490;28;20041;-52
2022/07/02 11:19:22;;;;;;;2.97;1.10;;;26.70;76.00;;;;;;5032637;28;20037;-50
2022/07/02 11:21:49;;;;;;;3.08;0.95;;;26.10;75.10;;;;;;5032688;28;20064;-51
2022/07/02 11:24:19;;;;;;;3.88;1.10;;;25.70;76.40;;;;;;5032529;28;20527;-49
2022/07/02 11:26:46;;;;;;;2.88;1.20;;;25.90;76.90;;;;;;5032518;28;20053;-51
2022/07/02 11:29:12;;;;;;;1.92;1.05;;;26.00;75.10;;;;;;5032450;28;20037;-52
2022/07/02 11:31:42;;;;;;;3.35;1.05;;;26.10;77.00;;;;;;5032447;28;20124;-53
2022/07/02 11:34:08;;;;;;;1.65;1.00;;;26.40;77.00;;;;;;5032393;28;20118;-48
2022/07/02 11:36:37;;;;;;;2.20;1.00;;;26.40;76.40;;;;;;5032331;28;20041;-52
2022/07/02 11:39:13;;;;;;;1.83;0.90;;;26.20;75.80;;;;;;5032400;28;20175;-52
2022/07/02 11:41:40;;;;;;;2.67;1.23;;;26.20;74.80;;;;;;5032312;28;20041;-53
2022/07/02 11:44:16;;;;;;;3.33;0.85;;;26.20;75.50;;;;;;5032115;28;20045;-54
2022/07/02 11:46:43;;;;;;;2.88;0.98;;;26.40;76.20;;;;;;5032521;28;20053;-48
2022/07/02 11:49:22;;;;;;;2.28;0.82;;;26.10;74.60;;;;;;5032339;28;20064;-48
2022/07/02 11:51:50;;;;;;;3.25;1.20;;;26.00;77.00;;;;;;5032339;28;20064;-50
2022/07/02 11:54:16;;;;;;;3.47;0.70;;;25.90;76.60;;;;;;5032215;28;20056;-50
2022/07/02 11:56:44;;;;;;;3.17;0.80;;;25.80;78.30;;;;;;5032445;28;20048;-50
2022/07/02 11:59:15;;;;;;;2.58;0.98;;;25.70;76.50;;;;;;5034122;28;20045;-53
2022/07/02 12:01:43;;;;;;;4.18;0.90;;;25.80;77.20;;;;;;5035982;28;20048;-51
2022/07/02 12:04:13;;;;;;;3.47;0.90;;;26.10;76.30;;;;;;5035667;28;20187;-50
2022/07/02 12:06:43;;;;;;;5.80;1.08;;;26.70;79.40;;;;;;5035664;28;20418;-50
2022/07/02 12:09:13;;;;;;;2.47;0.90;;;26.80;77.50;;;;;;5035800;28;20049;-53
2022/07/02 12:11:41;;;;;;;2.67;0.70;;;26.30;74.10;;;;;;5035758;28;20049;-52
2022/07/02 12:14:09;;;;;;;2.40;0.70;;;26.00;72.90;;;;;;5035692;28;20103;-51
2022/07/02 12:16:35;;;;;;;1.20;0.75;;;25.90;75.40;;;;;;5035434;28;20495;-49
2022/07/02 12:19:09;;;;;;;2.70;0.73;;;25.90;75.30;;;;;;5035402;28;20555;-52
2022/07/02 12:21:36;;;;;;;3.53;0.90;;;25.80;76.70;;;;;;5035385;28;20567;-50
2022/07/02 12:24:05;;;;;;;2.55;0.88;;;26.00;77.80;;;;;;5035498;28;20108;-51
2022/07/02 12:26:31;;;;;;;2.70;1.02;;;26.20;75.20;;;;;;5035421;28;20450;-50
2022/07/02 12:31:54;;;;;;;3.50;1.00;;;26.20;76.50;;;;;;5035190;28;20060;-53
2022/07/02 12:34:22;;;;;;;1.92;0.85;;;26.20;76.60;;;;;;5035235;28;20530;-50
2022/07/02 12:36:57;;;;;;;2.17;1.00;;;26.50;76.30;;;;;;5035242;28;20054;-52
2022/07/02 12:39:41;;;;;;;2.13;0.85;;;26.60;77.80;;;;;;5035153;28;20056;-49
2022/07/02 12:42:23;;;;;;;1.77;0.70;;;26.80;74.50;;;;;;5035067;28;20077;-52
2022/07/02 12:44:58;;;;;;;5.07;0.80;;;27.20;74.70;;;;;;5035209;28;20063;-54
2022/07/02 12:47:39;;;;;;;2.28;0.80;;;26.90;73.40;;;;;;5035050;28;20067;-53
2022/07/02 12:50:10;;;;;;;2.55;0.90;;;26.90;74.70;;;;;;5034944;28;20048;-50
2022/07/02 12:52:54;;;;;;;4.53;0.80;;;26.60;74.30;;;;;;5034732;28;20057;-48
2022/07/02 12:55:30;;;;;;;2.17;1.10;;;26.40;73.20;;;;;;5034788;28;20480;-52
2022/07/02 12:57:59;;;;;;;3.88;0.77;;;26.50;75.10;;;;;;5034982;28;20046;-49